sensor_id;sensor_type;location;lat;lon;timestamp;P1;durP1;ratioP1;P2;durP2;ratioP2
58768;SDS011;44536;47.474;19.056;2023-02-01T00:00:09;4.77;;;1.90;;
58768;SDS011;44536;47.474;19.056;2023-02-01T00:03:12;4.62;;;1.87;;
58768;SDS011;44536;47.474;19.056;2023-02-01T00:06:16;7.60;;;1.90;;
58768;SDS011;44536;47.474;19.056;2023-02-01T00:09:19;5.78;;;2.05;;
58768;SDS011;44536;47.474;19.056;2023-02-01T00:12:21;4.30;;;1.50;;
58768;SDS011;44536;47.474;19.056;2023-02-01T00:15:23;6.00;;;1.85;;
58768;SDS011;44536;47.474;19.056;2023-02-01T00:18:26;6.60;;;1.75;;
58768;SDS011;44536;47.474;19.056;2023-02-01T00:21:28;4.75;;;1.95;;
58768;SDS011;44536;47.474;19.056;2023-02-01T00:24:31;4.93;;;2.20;;
58768;SDS011;44536;47.474;19.056;2023-02-01T00:27:34;4.55;;;1.80;;
58768;SDS011;44536;47.474;19.056;2023-02-01T00:30:37;6.70;;;1.87;;
58768;SDS011;44536;47.474;19.056;2023-02-01T00:33:40;6.50;;;2.55;;
58768;SDS011;44536;47.474;19.056;2023-02-01T00:36:42;9.77;;;2.22;;
58768;SDS011;44536;47.474;19.056;2023-02-01T00:39:45;6.18;;;3.17;;
58768;SDS011;44536;47.474;19.056;2023-02-01T00:42:48;8.23;;;2.95;;
58768;SDS011;44536;47.474;19.056;2023-02-01T00:45:50;5.07;;;2.15;;
58768;SDS011;44536;47.474;19.056;2023-02-01T00:48:53;6.80;;;2.20;;
58768;SDS011;44536;47.474;19.056;2023-02-01T00:51:55;4.90;;;2.05;;
58768;SDS011;44536;47.474;19.056;2023-02-01T00:54:58;8.13;;;3.20;;
58768;SDS011;44536;47.474;19.056;2023-02-01T00:58:00;4.00;;;1.83;;
58768;SDS011;44536;47.474;19.056;2023-02-01T01:01:13;5.00;;;2.05;;
58768;SDS011;44536;47.474;19.056;2023-02-01T01:04:20;6.10;;;2.35;;
58768;SDS011;44536;47.474;19.056;2023-02-01T01:07:23;6.60;;;2.40;;
58768;SDS011;44536;47.474;19.056;2023-02-01T01:10:26;2.78;;;1.42;;
58768;SDS011;44536;47.474;19.056;2023-02-01T01:13:28;5.62;;;2.75;;
58768;SDS011;44536;47.474;19.056;2023-02-01T01:16:31;4.00;;;1.58;;
58768;SDS011;44536;47.474;19.056;2023-02-01T01:19:34;6.57;;;2.10;;
58768;SDS011;44536;47.474;19.056;2023-02-01T01:22:36;7.62;;;2.78;;
58768;SDS011;44536;47.474;19.056;2023-02-01T01:25:39;5.95;;;2.58;;
58768;SDS011;44536;47.474;19.056;2023-02-01T01:28:42;5.85;;;1.80;;
58768;SDS011;44536;47.474;19.056;2023-02-01T01:31:44;5.80;;;2.30;;
58768;SDS011;44536;47.474;19.056;2023-02-01T01:34:46;4.90;;;1.70;;
58768;SDS011;44536;47.474;19.056;2023-02-01T01:37:49;4.80;;;1.85;;
58768;SDS011;44536;47.474;19.056;2023-02-01T01:40:51;5.28;;;2.08;;
58768;SDS011;44536;47.474;19.056;2023-02-01T01:43:57;5.22;;;2.05;;
58768;SDS011;44536;47.474;19.056;2023-02-01T01:47:05;5.25;;;2.72;;
58768;SDS011;44536;47.474;19.056;2023-02-01T01:50:07;5.25;;;2.10;;
58768;SDS011;44536;47.474;19.056;2023-02-01T01:53:14;6.25;;;2.40;;
58768;SDS011;44536;47.474;19.056;2023-02-01T01:56:21;5.57;;;2.53;;
58768;SDS011;44536;47.474;19.056;2023-02-01T01:59:24;4.43;;;1.77;;
58768;SDS011;44536;47.474;19.056;2023-02-01T02:02:26;4.30;;;1.83;;
58768;SDS011;44536;47.474;19.056;2023-02-01T02:05:29;5.65;;;1.90;;
58768;SDS011;44536;47.474;19.056;2023-02-01T02:08:32;4.45;;;2.03;;
58768;SDS011;44536;47.474;19.056;2023-02-01T02:11:34;5.70;;;2.15;;
58768;SDS011;44536;47.474;19.056;2023-02-01T02:14:37;8.10;;;2.75;;
58768;SDS011;44536;47.474;19.056;2023-02-01T02:21:03;5.87;;;2.17;;
58768;SDS011;44536;47.474;19.056;2023-02-01T02:34:26;6.43;;;2.80;;
58768;SDS011;44536;47.474;19.056;2023-02-01T02:37:43;7.05;;;2.50;;
58768;SDS011;44536;47.474;19.056;2023-02-01T02:51:56;4.70;;;2.28;;
58768;SDS011;44536;47.474;19.056;2023-02-01T02:55:25;5.50;;;2.47;;
58768;SDS011;44536;47.474;19.056;2023-02-01T02:58:29;5.68;;;2.30;;
58768;SDS011;44536;47.474;19.056;2023-02-01T03:01:51;5.70;;;2.65;;
58768;SDS011;44536;47.474;19.056;2023-02-01T03:05:13;6.85;;;1.90;;
58768;SDS011;44536;47.474;19.056;2023-02-01T03:08:25;6.70;;;2.58;;
58768;SDS011;44536;47.474;19.056;2023-02-01T03:11:31;4.78;;;2.33;;
58768;SDS011;44536;47.474;19.056;2023-02-01T03:14:54;7.00;;;2.62;;
58768;SDS011;44536;47.474;19.056;2023-02-01T03:18:04;6.60;;;2.58;;
58768;SDS011;44536;47.474;19.056;2023-02-01T03:21:16;6.70;;;2.12;;
58768;SDS011;44536;47.474;19.056;2023-02-01T03:24:44;4.60;;;1.83;;
58768;SDS011;44536;47.474;19.056;2023-02-01T03:27:57;5.35;;;2.28;;
58768;SDS011;44536;47.474;19.056;2023-02-01T03:31:04;5.95;;;2.30;;
58768;SDS011;44536;47.474;19.056;2023-02-01T03:34:07;6.00;;;2.30;;
58768;SDS011;44536;47.474;19.056;2023-02-01T03:37:11;4.93;;;2.00;;
58768;SDS011;44536;47.474;19.056;2023-02-01T03:40:18;4.07;;;1.80;;
58768;SDS011;44536;47.474;19.056;2023-02-01T03:43:21;4.22;;;2.05;;
58768;SDS011;44536;47.474;19.056;2023-02-01T03:46:32;5.35;;;2.45;;
58768;SDS011;44536;47.474;19.056;2023-02-01T03:49:41;5.03;;;2.10;;
58768;SDS011;44536;47.474;19.056;2023-02-01T03:52:48;6.53;;;2.40;;
58768;SDS011;44536;47.474;19.056;2023-02-01T03:55:55;4.57;;;1.73;;
58768;SDS011;44536;47.474;19.056;2023-02-01T03:58:59;2.47;;;1.00;;
58768;SDS011;44536;47.474;19.056;2023-02-01T04:02:02;3.30;;;1.45;;
58768;SDS011;44536;47.474;19.056;2023-02-01T04:05:04;4.53;;;1.97;;
58768;SDS011;44536;47.474;19.056;2023-02-01T04:08:07;5.87;;;1.83;;
58768;SDS011;44536;47.474;19.056;2023-02-01T04:11:10;2.67;;;1.30;;
58768;SDS011;44536;47.474;19.056;2023-02-01T04:14:12;3.55;;;1.50;;
58768;SDS011;44536;47.474;19.056;2023-02-01T04:17:14;4.05;;;1.48;;
58768;SDS011;44536;47.474;19.056;2023-02-01T04:20:16;3.92;;;1.75;;
58768;SDS011;44536;47.474;19.056;2023-02-01T04:23:19;3.17;;;1.23;;
58768;SDS011;44536;47.474;19.056;2023-02-01T04:26:22;6.53;;;2.20;;
58768;SDS011;44536;47.474;19.056;2023-02-01T04:29:24;4.85;;;1.85;;
58768;SDS011;44536;47.474;19.056;2023-02-01T04:32:27;3.72;;;1.65;;
58768;SDS011;44536;47.474;19.056;2023-02-01T04:35:29;3.70;;;1.30;;
58768;SDS011;44536;47.474;19.056;2023-02-01T04:38:31;4.65;;;1.83;;
58768;SDS011;44536;47.474;19.056;2023-02-01T04:41:34;2.90;;;1.25;;
58768;SDS011;44536;47.474;19.056;2023-02-01T04:44:36;3.65;;;1.75;;
58768;SDS011;44536;47.474;19.056;2023-02-01T04:47:41;4.03;;;1.62;;
58768;SDS011;44536;47.474;19.056;2023-02-01T04:50:44;4.05;;;1.35;;
58768;SDS011;44536;47.474;19.056;2023-02-01T04:53:49;4.80;;;1.87;;
58768;SDS011;44536;47.474;19.056;2023-02-01T04:56:51;4.72;;;2.10;;
58768;SDS011;44536;47.474;19.056;2023-02-01T04:59:54;4.97;;;1.75;;
58768;SDS011;44536;47.474;19.056;2023-02-01T05:02:56;5.20;;;2.22;;
58768;SDS011;44536;47.474;19.056;2023-02-01T05:05:59;5.03;;;2.22;;
58768;SDS011;44536;47.474;19.056;2023-02-01T05:09:02;3.05;;;1.42;;
58768;SDS011;44536;47.474;19.056;2023-02-01T05:12:04;5.97;;;1.98;;
58768;SDS011;44536;47.474;19.056;2023-02-01T05:15:25;5.45;;;2.15;;
58768;SDS011;44536;47.474;19.056;2023-02-01T05:18:28;4.75;;;2.12;;
58768;SDS011;44536;47.474;19.056;2023-02-01T05:21:30;3.00;;;1.12;;
58768;SDS011;44536;47.474;19.056;2023-02-01T05:24:33;4.25;;;1.73;;
58768;SDS011;44536;47.474;19.056;2023-02-01T05:27:36;2.92;;;1.30;;
58768;SDS011;44536;47.474;19.056;2023-02-01T05:30:39;5.12;;;1.70;;
58768;SDS011;44536;47.474;19.056;2023-02-01T05:33:43;4.22;;;1.33;;
58768;SDS011;44536;47.474;19.056;2023-02-01T05:36:45;6.18;;;2.03;;
58768;SDS011;44536;47.474;19.056;2023-02-01T05:39:48;5.70;;;1.87;;
58768;SDS011;44536;47.474;19.056;2023-02-01T05:42:51;2.50;;;1.20;;
58768;SDS011;44536;47.474;19.056;2023-02-01T05:45:53;2.95;;;1.30;;
58768;SDS011;44536;47.474;19.056;2023-02-01T05:48:56;3.77;;;1.50;;
58768;SDS011;44536;47.474;19.056;2023-02-01T05:51:59;5.37;;;1.80;;
58768;SDS011;44536;47.474;19.056;2023-02-01T05:55:02;4.43;;;2.00;;
58768;SDS011;44536;47.474;19.056;2023-02-01T05:58:05;3.30;;;1.30;;
58768;SDS011;44536;47.474;19.056;2023-02-01T06:01:07;4.33;;;1.70;;
58768;SDS011;44536;47.474;19.056;2023-02-01T06:04:10;4.97;;;1.85;;
58768;SDS011;44536;47.474;19.056;2023-02-01T06:07:12;5.55;;;1.87;;
58768;SDS011;44536;47.474;19.056;2023-02-01T06:10:17;5.37;;;1.77;;
58768;SDS011;44536;47.474;19.056;2023-02-01T06:13:20;3.20;;;1.87;;
58768;SDS011;44536;47.474;19.056;2023-02-01T06:16:23;3.37;;;1.35;;
58768;SDS011;44536;47.474;19.056;2023-02-01T06:19:25;3.72;;;1.50;;
58768;SDS011;44536;47.474;19.056;2023-02-01T06:22:28;3.97;;;1.75;;
58768;SDS011;44536;47.474;19.056;2023-02-01T06:25:30;5.82;;;2.15;;
58768;SDS011;44536;47.474;19.056;2023-02-01T06:28:33;5.00;;;2.08;;
58768;SDS011;44536;47.474;19.056;2023-02-01T06:31:35;4.65;;;1.70;;
58768;SDS011;44536;47.474;19.056;2023-02-01T06:34:38;4.05;;;1.80;;
58768;SDS011;44536;47.474;19.056;2023-02-01T06:37:41;4.07;;;2.03;;
58768;SDS011;44536;47.474;19.056;2023-02-01T06:40:44;4.72;;;2.35;;
58768;SDS011;44536;47.474;19.056;2023-02-01T06:43:54;7.75;;;1.90;;
58768;SDS011;44536;47.474;19.056;2023-02-01T06:46:57;4.37;;;1.60;;
58768;SDS011;44536;47.474;19.056;2023-02-01T06:49:59;3.55;;;1.73;;
58768;SDS011;44536;47.474;19.056;2023-02-01T06:53:02;5.68;;;2.20;;
58768;SDS011;44536;47.474;19.056;2023-02-01T06:56:04;3.33;;;1.40;;
58768;SDS011;44536;47.474;19.056;2023-02-01T06:59:07;3.35;;;1.58;;
58768;SDS011;44536;47.474;19.056;2023-02-01T07:02:13;4.57;;;1.83;;
58768;SDS011;44536;47.474;19.056;2023-02-01T07:05:15;5.15;;;1.70;;
58768;SDS011;44536;47.474;19.056;2023-02-01T07:08:18;3.87;;;1.37;;
58768;SDS011;44536;47.474;19.056;2023-02-01T07:11:21;3.83;;;1.50;;
58768;SDS011;44536;47.474;19.056;2023-02-01T07:14:23;4.07;;;1.50;;
58768;SDS011;44536;47.474;19.056;2023-02-01T07:17:26;3.55;;;1.42;;
58768;SDS011;44536;47.474;19.056;2023-02-01T07:20:30;3.22;;;1.52;;
58768;SDS011;44536;47.474;19.056;2023-02-01T07:23:33;9.93;;;2.05;;
58768;SDS011;44536;47.474;19.056;2023-02-01T07:26:37;3.90;;;1.63;;
58768;SDS011;44536;47.474;19.056;2023-02-01T07:29:42;4.10;;;1.73;;
58768;SDS011;44536;47.474;19.056;2023-02-01T07:32:45;5.07;;;1.55;;
58768;SDS011;44536;47.474;19.056;2023-02-01T07:35:48;4.40;;;1.63;;
58768;SDS011;44536;47.474;19.056;2023-02-01T07:38:51;4.57;;;2.10;;
58768;SDS011;44536;47.474;19.056;2023-02-01T07:41:58;3.95;;;1.40;;
58768;SDS011;44536;47.474;19.056;2023-02-01T07:45:07;3.30;;;1.58;;
58768;SDS011;44536;47.474;19.056;2023-02-01T07:48:23;3.30;;;1.23;;
58768;SDS011;44536;47.474;19.056;2023-02-01T07:51:27;6.43;;;1.62;;
58768;SDS011;44536;47.474;19.056;2023-02-01T07:54:30;2.83;;;1.02;;
58768;SDS011;44536;47.474;19.056;2023-02-01T07:57:33;5.12;;;1.87;;
58768;SDS011;44536;47.474;19.056;2023-02-01T08:00:35;4.63;;;1.47;;
58768;SDS011;44536;47.474;19.056;2023-02-01T08:03:58;4.35;;;1.92;;
58768;SDS011;44536;47.474;19.056;2023-02-01T08:07:02;6.50;;;1.75;;
58768;SDS011;44536;47.474;19.056;2023-02-01T08:10:05;3.80;;;1.30;;
58768;SDS011;44536;47.474;19.056;2023-02-01T08:13:12;4.18;;;1.52;;
58768;SDS011;44536;47.474;19.056;2023-02-01T08:16:16;4.70;;;1.73;;
58768;SDS011;44536;47.474;19.056;2023-02-01T08:19:19;4.05;;;1.80;;
58768;SDS011;44536;47.474;19.056;2023-02-01T08:22:22;6.32;;;2.15;;
58768;SDS011;44536;47.474;19.056;2023-02-01T08:25:24;5.28;;;1.77;;
58768;SDS011;44536;47.474;19.056;2023-02-01T08:28:27;4.00;;;1.65;;
58768;SDS011;44536;47.474;19.056;2023-02-01T08:31:29;3.58;;;1.65;;
58768;SDS011;44536;47.474;19.056;2023-02-01T08:34:32;5.78;;;2.12;;
58768;SDS011;44536;47.474;19.056;2023-02-01T08:37:37;3.75;;;2.00;;
58768;SDS011;44536;47.474;19.056;2023-02-01T08:40:40;4.37;;;1.52;;
58768;SDS011;44536;47.474;19.056;2023-02-01T08:43:43;4.60;;;1.90;;
58768;SDS011;44536;47.474;19.056;2023-02-01T08:46:46;5.83;;;2.03;;
58768;SDS011;44536;47.474;19.056;2023-02-01T08:49:48;4.80;;;2.28;;
58768;SDS011;44536;47.474;19.056;2023-02-01T08:52:51;4.40;;;2.22;;
58768;SDS011;44536;47.474;19.056;2023-02-01T08:58:57;7.85;;;2.70;;
58768;SDS011;44536;47.474;19.056;2023-02-01T09:01:59;6.03;;;2.30;;
58768;SDS011;44536;47.474;19.056;2023-02-01T09:05:02;4.75;;;1.92;;
58768;SDS011;44536;47.474;19.056;2023-02-01T09:08:05;5.60;;;2.67;;
58768;SDS011;44536;47.474;19.056;2023-02-01T09:11:11;7.33;;;2.17;;
58768;SDS011;44536;47.474;19.056;2023-02-01T09:14:23;5.90;;;1.90;;
58768;SDS011;44536;47.474;19.056;2023-02-01T09:17:26;5.18;;;2.28;;
58768;SDS011;44536;47.474;19.056;2023-02-01T09:20:30;5.90;;;2.37;;
58768;SDS011;44536;47.474;19.056;2023-02-01T09:23:33;4.03;;;2.00;;
58768;SDS011;44536;47.474;19.056;2023-02-01T09:26:36;4.75;;;1.98;;
58768;SDS011;44536;47.474;19.056;2023-02-01T09:29:39;3.97;;;1.87;;
58768;SDS011;44536;47.474;19.056;2023-02-01T09:32:41;5.50;;;2.20;;
58768;SDS011;44536;47.474;19.056;2023-02-01T09:35:44;5.62;;;2.87;;
58768;SDS011;44536;47.474;19.056;2023-02-01T09:38:46;6.72;;;2.25;;
58768;SDS011;44536;47.474;19.056;2023-02-01T09:48:35;5.20;;;1.80;;
58768;SDS011;44536;47.474;19.056;2023-02-01T09:51:43;6.18;;;2.00;;
58768;SDS011;44536;47.474;19.056;2023-02-01T09:54:56;5.30;;;2.35;;
58768;SDS011;44536;47.474;19.056;2023-02-01T09:58:09;4.12;;;1.90;;
58768;SDS011;44536;47.474;19.056;2023-02-01T10:01:31;6.30;;;2.28;;
58768;SDS011;44536;47.474;19.056;2023-02-01T10:04:34;5.55;;;2.47;;
58768;SDS011;44536;47.474;19.056;2023-02-01T10:10:53;4.45;;;2.30;;
58768;SDS011;44536;47.474;19.056;2023-02-01T10:14:08;6.35;;;2.50;;
58768;SDS011;44536;47.474;19.056;2023-02-01T10:27:25;5.53;;;2.58;;
58768;SDS011;44536;47.474;19.056;2023-02-01T10:30:40;6.65;;;2.90;;
58768;SDS011;44536;47.474;19.056;2023-02-01T10:33:47;8.07;;;3.35;;
58768;SDS011;44536;47.474;19.056;2023-02-01T10:36:54;7.45;;;3.10;;
58768;SDS011;44536;47.474;19.056;2023-02-01T10:40:10;6.95;;;3.10;;
58768;SDS011;44536;47.474;19.056;2023-02-01T10:43:26;6.57;;;3.37;;
58768;SDS011;44536;47.474;19.056;2023-02-01T10:46:29;6.12;;;2.75;;
58768;SDS011;44536;47.474;19.056;2023-02-01T10:53:19;6.15;;;2.95;;
58768;SDS011;44536;47.474;19.056;2023-02-01T10:56:27;6.20;;;3.62;;
58768;SDS011;44536;47.474;19.056;2023-02-01T10:59:30;6.35;;;3.60;;
58768;SDS011;44536;47.474;19.056;2023-02-01T11:02:35;6.87;;;3.62;;
58768;SDS011;44536;47.474;19.056;2023-02-01T11:05:44;7.12;;;3.65;;
58768;SDS011;44536;47.474;19.056;2023-02-01T11:08:49;6.28;;;3.67;;
58768;SDS011;44536;47.474;19.056;2023-02-01T11:11:55;5.43;;;2.80;;
58768;SDS011;44536;47.474;19.056;2023-02-01T11:15:13;7.12;;;3.20;;
58768;SDS011;44536;47.474;19.056;2023-02-01T11:18:26;8.80;;;3.65;;
58768;SDS011;44536;47.474;19.056;2023-02-01T11:21:30;7.22;;;4.15;;
58768;SDS011;44536;47.474;19.056;2023-02-01T11:24:35;8.25;;;3.37;;
58768;SDS011;44536;47.474;19.056;2023-02-01T11:27:40;13.32;;;3.00;;
58768;SDS011;44536;47.474;19.056;2023-02-01T11:30:56;7.47;;;3.60;;
58768;SDS011;44536;47.474;19.056;2023-02-01T11:34:12;7.25;;;3.45;;
58768;SDS011;44536;47.474;19.056;2023-02-01T11:37:25;8.35;;;3.42;;
58768;SDS011;44536;47.474;19.056;2023-02-01T11:40:34;6.62;;;3.10;;
58768;SDS011;44536;47.474;19.056;2023-02-01T11:43:38;6.43;;;3.25;;
58768;SDS011;44536;47.474;19.056;2023-02-01T11:50:34;7.65;;;3.83;;
58768;SDS011;44536;47.474;19.056;2023-02-01T12:01:06;8.82;;;4.07;;
58768;SDS011;44536;47.474;19.056;2023-02-01T12:04:30;7.70;;;4.00;;
58768;SDS011;44536;47.474;19.056;2023-02-01T12:08:03;8.05;;;3.08;;
58768;SDS011;44536;47.474;19.056;2023-02-01T12:11:29;7.95;;;3.97;;
58768;SDS011;44536;47.474;19.056;2023-02-01T12:21:48;7.12;;;3.22;;
58768;SDS011;44536;47.474;19.056;2023-02-01T12:24:57;10.27;;;3.90;;
58768;SDS011;44536;47.474;19.056;2023-02-01T12:38:20;7.37;;;4.35;;
58768;SDS011;44536;47.474;19.056;2023-02-01T12:45:11;6.80;;;3.80;;
58768;SDS011;44536;47.474;19.056;2023-02-01T12:51:39;7.75;;;2.85;;
58768;SDS011;44536;47.474;19.056;2023-02-01T13:01:34;4.43;;;2.17;;
58768;SDS011;44536;47.474;19.056;2023-02-01T13:04:44;6.20;;;2.50;;
58768;SDS011;44536;47.474;19.056;2023-02-01T13:08:18;6.30;;;2.62;;
58768;SDS011;44536;47.474;19.056;2023-02-01T13:11:30;6.25;;;2.67;;
58768;SDS011;44536;47.474;19.056;2023-02-01T13:18:00;7.37;;;3.33;;
58768;SDS011;44536;47.474;19.056;2023-02-01T13:21:08;7.22;;;3.50;;
58768;SDS011;44536;47.474;19.056;2023-02-01T13:27:37;6.60;;;2.47;;
58768;SDS011;44536;47.474;19.056;2023-02-01T13:41:10;8.15;;;3.72;;
58768;SDS011;44536;47.474;19.056;2023-02-01T13:44:38;7.37;;;3.87;;
58768;SDS011;44536;47.474;19.056;2023-02-01T13:47:45;7.20;;;3.40;;
58768;SDS011;44536;47.474;19.056;2023-02-01T13:50:55;6.72;;;2.85;;
58768;SDS011;44536;47.474;19.056;2023-02-01T13:53:59;7.47;;;3.65;;
58768;SDS011;44536;47.474;19.056;2023-02-01T13:57:03;6.65;;;3.85;;
58768;SDS011;44536;47.474;19.056;2023-02-01T14:00:08;9.25;;;3.62;;
58768;SDS011;44536;47.474;19.056;2023-02-01T14:03:43;6.35;;;3.15;;
58768;SDS011;44536;47.474;19.056;2023-02-01T14:06:49;7.70;;;3.35;;
58768;SDS011;44536;47.474;19.056;2023-02-01T14:09:54;9.25;;;3.83;;
58768;SDS011;44536;47.474;19.056;2023-02-01T14:13:04;6.65;;;2.83;;
58768;SDS011;44536;47.474;19.056;2023-02-01T14:16:16;6.65;;;3.50;;
58768;SDS011;44536;47.474;19.056;2023-02-01T14:19:23;6.12;;;2.80;;
58768;SDS011;44536;47.474;19.056;2023-02-01T14:22:33;4.65;;;2.47;;
58768;SDS011;44536;47.474;19.056;2023-02-01T14:25:36;5.03;;;4.13;;
58768;SDS011;44536;47.474;19.056;2023-02-01T14:28:42;7.93;;;2.85;;
58768;SDS011;44536;47.474;19.056;2023-02-01T14:35:26;6.80;;;3.42;;
58768;SDS011;44536;47.474;19.056;2023-02-01T14:38:30;7.78;;;3.70;;
58768;SDS011;44536;47.474;19.056;2023-02-01T14:41:34;5.30;;;2.45;;
58768;SDS011;44536;47.474;19.056;2023-02-01T14:44:37;5.30;;;2.83;;
58768;SDS011;44536;47.474;19.056;2023-02-01T14:47:40;8.67;;;3.07;;
58768;SDS011;44536;47.474;19.056;2023-02-01T14:50:43;5.37;;;2.33;;
58768;SDS011;44536;47.474;19.056;2023-02-01T14:53:50;6.60;;;2.33;;
58768;SDS011;44536;47.474;19.056;2023-02-01T14:56:53;5.35;;;2.20;;
58768;SDS011;44536;47.474;19.056;2023-02-01T15:03:16;6.65;;;2.15;;
58768;SDS011;44536;47.474;19.056;2023-02-01T15:06:55;5.60;;;2.42;;
58768;SDS011;44536;47.474;19.056;2023-02-01T15:10:03;4.30;;;2.15;;
58768;SDS011;44536;47.474;19.056;2023-02-01T15:13:12;4.82;;;2.20;;
58768;SDS011;44536;47.474;19.056;2023-02-01T15:16:21;4.20;;;1.83;;
58768;SDS011;44536;47.474;19.056;2023-02-01T15:19:26;4.22;;;2.05;;
58768;SDS011;44536;47.474;19.056;2023-02-01T15:22:30;2.55;;;0.98;;
58768;SDS011;44536;47.474;19.056;2023-02-01T15:25:34;7.97;;;2.17;;
58768;SDS011;44536;47.474;19.056;2023-02-01T15:28:40;3.70;;;1.40;;
58768;SDS011;44536;47.474;19.056;2023-02-01T15:31:44;2.05;;;1.08;;
58768;SDS011;44536;47.474;19.056;2023-02-01T15:34:53;3.03;;;1.35;;
58768;SDS011;44536;47.474;19.056;2023-02-01T15:38:17;1.80;;;0.90;;
58768;SDS011;44536;47.474;19.056;2023-02-01T15:41:28;5.25;;;1.90;;
58768;SDS011;44536;47.474;19.056;2023-02-01T15:47:46;2.70;;;1.30;;
58768;SDS011;44536;47.474;19.056;2023-02-01T15:50:50;2.97;;;1.20;;
58768;SDS011;44536;47.474;19.056;2023-02-01T15:53:55;4.45;;;2.20;;
58768;SDS011;44536;47.474;19.056;2023-02-01T15:57:12;3.95;;;1.40;;
58768;SDS011;44536;47.474;19.056;2023-02-01T16:03:36;3.05;;;1.30;;
58768;SDS011;44536;47.474;19.056;2023-02-01T16:06:45;2.55;;;0.75;;
58768;SDS011;44536;47.474;19.056;2023-02-01T16:09:54;2.97;;;0.93;;
58768;SDS011;44536;47.474;19.056;2023-02-01T16:12:57;8.40;;;1.65;;
58768;SDS011;44536;47.474;19.056;2023-02-01T16:16:02;4.10;;;1.35;;
58768;SDS011;44536;47.474;19.056;2023-02-01T16:19:09;4.80;;;1.98;;
58768;SDS011;44536;47.474;19.056;2023-02-01T16:22:13;3.47;;;1.10;;
58768;SDS011;44536;47.474;19.056;2023-02-01T16:25:15;1.87;;;1.17;;
58768;SDS011;44536;47.474;19.056;2023-02-01T16:28:18;3.10;;;1.00;;
58768;SDS011;44536;47.474;19.056;2023-02-01T16:31:21;2.45;;;1.10;;
58768;SDS011;44536;47.474;19.056;2023-02-01T16:34:29;3.15;;;1.20;;
58768;SDS011;44536;47.474;19.056;2023-02-01T16:37:32;3.35;;;1.42;;
58768;SDS011;44536;47.474;19.056;2023-02-01T16:40:39;2.47;;;0.85;;
58768;SDS011;44536;47.474;19.056;2023-02-01T16:43:45;2.75;;;1.25;;
58768;SDS011;44536;47.474;19.056;2023-02-01T16:46:51;5.07;;;1.70;;
58768;SDS011;44536;47.474;19.056;2023-02-01T16:49:54;4.05;;;1.50;;
58768;SDS011;44536;47.474;19.056;2023-02-01T16:52:56;2.92;;;1.20;;
58768;SDS011;44536;47.474;19.056;2023-02-01T16:55:59;4.28;;;2.03;;
58768;SDS011;44536;47.474;19.056;2023-02-01T16:59:02;3.30;;;1.60;;
58768;SDS011;44536;47.474;19.056;2023-02-01T17:02:05;3.45;;;1.60;;
58768;SDS011;44536;47.474;19.056;2023-02-01T17:08:12;5.20;;;1.98;;
58768;SDS011;44536;47.474;19.056;2023-02-01T17:11:18;3.72;;;1.75;;
58768;SDS011;44536;47.474;19.056;2023-02-01T17:14:21;6.75;;;1.73;;
58768;SDS011;44536;47.474;19.056;2023-02-01T17:20:40;4.87;;;2.10;;
58768;SDS011;44536;47.474;19.056;2023-02-01T17:23:44;5.10;;;2.25;;
58768;SDS011;44536;47.474;19.056;2023-02-01T17:26:47;3.90;;;2.08;;
58768;SDS011;44536;47.474;19.056;2023-02-01T17:29:53;5.62;;;2.40;;
58768;SDS011;44536;47.474;19.056;2023-02-01T17:32:58;4.75;;;1.75;;
58768;SDS011;44536;47.474;19.056;2023-02-01T17:36:12;6.80;;;2.67;;
58768;SDS011;44536;47.474;19.056;2023-02-01T17:39:16;4.95;;;2.03;;
58768;SDS011;44536;47.474;19.056;2023-02-01T17:42:38;5.40;;;2.08;;
58768;SDS011;44536;47.474;19.056;2023-02-01T17:45:45;5.30;;;2.17;;
58768;SDS011;44536;47.474;19.056;2023-02-01T17:48:53;6.15;;;2.17;;
58768;SDS011;44536;47.474;19.056;2023-02-01T17:51:56;4.18;;;1.85;;
58768;SDS011;44536;47.474;19.056;2023-02-01T17:54:59;4.07;;;1.62;;
58768;SDS011;44536;47.474;19.056;2023-02-01T17:58:04;6.60;;;2.70;;
58768;SDS011;44536;47.474;19.056;2023-02-01T18:01:10;6.20;;;2.90;;
58768;SDS011;44536;47.474;19.056;2023-02-01T18:04:15;4.65;;;1.50;;
58768;SDS011;44536;47.474;19.056;2023-02-01T18:07:20;4.60;;;1.85;;
58768;SDS011;44536;47.474;19.056;2023-02-01T18:10:22;5.25;;;2.45;;
58768;SDS011;44536;47.474;19.056;2023-02-01T18:13:25;5.22;;;2.10;;
58768;SDS011;44536;47.474;19.056;2023-02-01T18:16:32;4.85;;;2.03;;
58768;SDS011;44536;47.474;19.056;2023-02-01T18:19:35;4.28;;;1.83;;
58768;SDS011;44536;47.474;19.056;2023-02-01T18:22:38;4.25;;;1.30;;
58768;SDS011;44536;47.474;19.056;2023-02-01T18:25:40;5.10;;;1.60;;
58768;SDS011;44536;47.474;19.056;2023-02-01T18:28:43;5.03;;;1.87;;
58768;SDS011;44536;47.474;19.056;2023-02-01T18:31:47;4.72;;;1.92;;
58768;SDS011;44536;47.474;19.056;2023-02-01T18:34:53;5.28;;;2.62;;
58768;SDS011;44536;47.474;19.056;2023-02-01T18:37:55;5.40;;;2.28;;
58768;SDS011;44536;47.474;19.056;2023-02-01T18:44:02;5.78;;;1.75;;
58768;SDS011;44536;47.474;19.056;2023-02-01T18:47:05;3.22;;;1.50;;
58768;SDS011;44536;47.474;19.056;2023-02-01T18:50:08;4.32;;;1.48;;
58768;SDS011;44536;47.474;19.056;2023-02-01T18:53:16;3.17;;;1.52;;
58768;SDS011;44536;47.474;19.056;2023-02-01T18:56:20;3.47;;;1.40;;
58768;SDS011;44536;47.474;19.056;2023-02-01T18:59:23;2.58;;;1.15;;
58768;SDS011;44536;47.474;19.056;2023-02-01T19:02:26;4.50;;;1.40;;
58768;SDS011;44536;47.474;19.056;2023-02-01T19:05:29;4.00;;;1.60;;
58768;SDS011;44536;47.474;19.056;2023-02-01T19:08:32;2.58;;;1.12;;
58768;SDS011;44536;47.474;19.056;2023-02-01T19:11:36;5.10;;;1.85;;
58768;SDS011;44536;47.474;19.056;2023-02-01T19:14:38;3.75;;;1.48;;
58768;SDS011;44536;47.474;19.056;2023-02-01T19:17:44;4.70;;;2.05;;
58768;SDS011;44536;47.474;19.056;2023-02-01T19:20:48;4.07;;;1.30;;
58768;SDS011;44536;47.474;19.056;2023-02-01T19:23:56;2.90;;;1.45;;
58768;SDS011;44536;47.474;19.056;2023-02-01T19:26:59;2.97;;;1.60;;
58768;SDS011;44536;47.474;19.056;2023-02-01T19:30:02;2.92;;;1.23;;
58768;SDS011;44536;47.474;19.056;2023-02-01T19:33:05;4.07;;;1.52;;
58768;SDS011;44536;47.474;19.056;2023-02-01T19:36:08;3.78;;;1.35;;
58768;SDS011;44536;47.474;19.056;2023-02-01T19:39:12;4.18;;;1.40;;
58768;SDS011;44536;47.474;19.056;2023-02-01T19:42:15;5.40;;;1.95;;
58768;SDS011;44536;47.474;19.056;2023-02-01T19:45:17;4.37;;;1.60;;
58768;SDS011;44536;47.474;19.056;2023-02-01T19:48:21;3.87;;;1.48;;
58768;SDS011;44536;47.474;19.056;2023-02-01T19:51:24;3.60;;;1.65;;
58768;SDS011;44536;47.474;19.056;2023-02-01T19:54:26;3.10;;;1.10;;
58768;SDS011;44536;47.474;19.056;2023-02-01T19:57:29;4.65;;;1.98;;
58768;SDS011;44536;47.474;19.056;2023-02-01T20:00:32;5.80;;;1.52;;
58768;SDS011;44536;47.474;19.056;2023-02-01T20:03:35;4.75;;;1.40;;
58768;SDS011;44536;47.474;19.056;2023-02-01T20:06:38;5.85;;;2.10;;
58768;SDS011;44536;47.474;19.056;2023-02-01T20:09:42;5.03;;;1.92;;
58768;SDS011;44536;47.474;19.056;2023-02-01T20:12:47;4.00;;;1.58;;
58768;SDS011;44536;47.474;19.056;2023-02-01T20:15:56;5.25;;;1.52;;
58768;SDS011;44536;47.474;19.056;2023-02-01T20:19:00;6.15;;;1.77;;
58768;SDS011;44536;47.474;19.056;2023-02-01T20:22:02;5.53;;;1.60;;
58768;SDS011;44536;47.474;19.056;2023-02-01T20:25:05;3.62;;;1.85;;
58768;SDS011;44536;47.474;19.056;2023-02-01T20:28:08;3.75;;;1.87;;
58768;SDS011;44536;47.474;19.056;2023-02-01T20:31:10;4.60;;;2.45;;
58768;SDS011;44536;47.474;19.056;2023-02-01T20:34:13;5.87;;;2.40;;